KFLO/FLO METAR and TAF weather

Enter ICAO airport designator
Station Type Date Time Source
KFLO METAR 2019/04/23 03:53 UTC NOAA

KFLO 230353Z AUTO 00000KT 10SM CLR 13/10 A3015 RMK AO2 SLP207 T01330100


Station Type Date Time Source
KFLO Decoded METAR 2019/04/23 03:53 UTC NOAA

FLORENCE REGIONAL AIRPORT, SC, United States (KFLO) 34-11N 079-44W 44M
Apr 22, 2019 - 11:53 PM EDT / 2019.04.23 0353 UTC
Wind: Calm:0
Visibility: 10 mile(s):0
Sky conditions: clear
Temperature: 55.9 F (13.3 C)
Dew Point: 50.0 F (10.0 C)
Relative Humidity: 80%
Pressure (altimeter): 30.15 in. Hg (1020 hPa)
ob: KFLO 230353Z AUTO 00000KT 10SM CLR 13/10 A3015 RMK AO2 SLP207 T01330100
cycle: 4

Station Type Date Time Source
KFLO TAF 2019/04/22 18:27 UTC NOAA

TAF KFLO 221725Z 2218/2318 36011KT P6SM SKC
FM230100 20002KT P6SM SKC
TEMPO 2309/2311 5SM BR

Example: see airport list